Time;durP1;ratioP1;P1;durP2;ratioP2;P2;SDS_P1;SDS_P2;PMS_P1;PMS_P2;Temp;Humidity;BMP_temperature;BMP_pressure;BME280_temperature;BME280_humidity;BME280_pressure;Samples;Min_cycle;Max_cycle;Signal;HPM_P1;HPM_P2
2021/05/28 04:19:00;;;;;;;0.75;0.30;;;17.90;44.30;;;;;;5068139;27;20560;-76
2021/05/28 04:21:28;;;;;;;1.98;0.20;;;17.60;44.70;;;;;;5068302;28;20017;-75
2021/05/28 04:23:55;;;;;;;1.20;0.30;;;17.60;45.40;;;;;;5074621;28;20032;-79
2021/05/28 04:26:23;;;;;;;1.38;0.17;;;17.60;45.20;;;;;;5064663;28;20029;-75
2021/05/28 04:28:50;;;;;;;0.75;0.30;;;17.60;45.30;;;;;;5081953;28;20028;-78
2021/05/28 04:31:18;;;;;;;0.40;0.30;;;17.60;44.90;;;;;;5064917;28;20040;-77
2021/05/28 04:33:45;;;;;;;3.97;0.35;;;17.60;44.90;;;;;;5057574;28;20028;-77
2021/05/28 04:36:13;;;;;;;0.40;0.20;;;17.50;45.00;;;;;;5064044;28;20491;-78
2021/05/28 04:38:40;;;;;;;0.93;0.20;;;17.50;44.80;;;;;;5070123;28;20064;-77
2021/05/28 04:41:08;;;;;;;0.45;0.30;;;17.50;44.90;;;;;;5064787;28;20062;-77
2021/05/28 04:43:35;;;;;;;1.25;0.20;;;17.40;44.70;;;;;;5072629;28;20021;-79
2021/05/28 04:46:03;;;;;;;1.48;0.20;;;17.40;45.30;;;;;;5063476;28;20025;-76
2021/05/28 04:48:30;;;;;;;9.77;2.13;;;17.40;45.20;;;;;;5065603;28;20024;-76
2021/05/28 04:50:58;;;;;;;1.30;0.60;;;17.40;44.90;;;;;;5064033;28;20025;-75
2021/05/28 04:53:25;;;;;;;0.52;0.15;;;17.40;44.70;;;;;;5072799;28;20040;-76
2021/05/28 04:55:53;;;;;;;0.60;0.20;;;17.30;45.20;;;;;;5065326;28;20017;-76
2021/05/28 04:58:20;;;;;;;2.08;0.32;;;17.30;45.50;;;;;;5061911;28;20128;-75
2021/05/28 05:00:49;;;;;;;0.65;0.20;;;17.20;44.10;;;;;;5068896;28;20040;-77
2021/05/28 05:03:16;;;;;;;1.55;0.20;;;17.20;44.50;;;;;;5065796;28;20032;-77
2021/05/28 05:05:44;;;;;;;2.38;1.20;;;17.30;43.80;;;;;;5072590;28;20032;-76
2021/05/28 05:08:12;;;;;;;1.52;0.20;;;17.20;43.10;;;;;;5068991;28;20024;-78
2021/05/28 05:10:39;;;;;;;0.57;0.20;;;17.00;42.40;;;;;;5072596;28;20031;-77
2021/05/28 05:13:13;;;;;;;1.70;0.30;;;17.00;43.20;;;;;;5072186;28;20021;-76
2021/05/28 05:15:41;;;;;;;1.33;0.25;;;16.90;43.60;;;;;;5068685;28;20315;-75
2021/05/28 05:18:09;;;;;;;3.33;1.20;;;17.00;43.80;;;;;;5081407;28;20079;-76
2021/05/28 05:20:37;;;;;;;10.05;5.03;;;16.90;43.70;;;;;;5078597;28;20653;-77
2021/05/28 05:23:05;;;;;;;4.40;1.55;;;17.00;43.50;;;;;;5073530;28;20020;-81
2021/05/28 05:25:34;;;;;;;2.92;0.50;;;17.00;43.10;;;;;;5073856;28;20027;-78
2021/05/28 05:28:01;;;;;;;1.27;0.55;;;17.10;43.00;;;;;;5071784;28;20109;-75
2021/05/28 05:30:29;;;;;;;0.57;0.30;;;17.10;42.90;;;;;;5063619;28;20025;-77
2021/05/28 05:32:56;;;;;;;1.63;0.85;;;17.00;43.10;;;;;;5060080;28;20183;-78
2021/05/28 05:35:23;;;;;;;0.50;0.30;;;17.00;43.00;;;;;;5055859;28;20031;-76
2021/05/28 05:37:51;;;;;;;2.55;1.15;;;17.10;43.10;;;;;;5066409;28;20036;-77
2021/05/28 05:40:18;;;;;;;0.52;0.10;;;17.10;43.50;;;;;;5061148;28;20360;-77
2021/05/28 05:42:46;;;;;;;1.25;0.25;;;17.20;43.50;;;;;;5054000;28;20028;-76
2021/05/28 05:45:15;;;;;;;1.17;0.30;;;17.10;43.30;;;;;;5055861;28;20485;-77
2021/05/28 05:47:43;;;;;;;1.95;0.25;;;17.00;44.00;;;;;;5061655;28;20029;-76
2021/05/28 05:50:13;;;;;;;0.55;0.40;;;17.10;43.30;;;;;;5040910;28;20052;-75
2021/05/28 05:52:40;;;;;;;1.50;0.20;;;17.10;43.30;;;;;;5045478;28;20033;-77
2021/05/28 05:55:09;;;;;;;1.58;0.30;;;17.10;42.70;;;;;;5054901;28;20021;-78
2021/05/28 05:57:36;;;;;;;2.05;0.95;;;17.10;43.90;;;;;;5060657;28;20128;-76
2021/05/28 06:00:06;;;;;;;1.30;0.38;;;17.10;43.50;;;;;;5065880;28;20036;-76
2021/05/28 06:02:34;;;;;;;0.28;0.10;;;17.00;43.80;;;;;;5056158;28;20021;-74
2021/05/28 06:05:01;;;;;;;1.92;0.98;;;17.10;43.60;;;;;;5051843;28;20025;-76
2021/05/28 06:07:29;;;;;;;3.60;0.50;;;17.10;43.90;;;;;;5059801;28;20612;-77
2021/05/28 06:09:56;;;;;;;0.98;0.40;;;17.10;43.30;;;;;;5054615;28;20060;-77
2021/05/28 06:12:24;;;;;;;1.30;0.45;;;17.10;43.70;;;;;;5048662;28;20017;-77
2021/05/28 06:14:51;;;;;;;5.68;0.40;;;17.20;43.60;;;;;;5055773;28;20517;-75
2021/05/28 06:17:19;;;;;;;1.83;0.30;;;17.20;43.90;;;;;;5052297;28;20129;-78
2021/05/28 06:19:47;;;;;;;1.05;0.40;;;17.20;43.80;;;;;;5054383;28;20044;-77
2021/05/28 06:22:20;;;;;;;2.72;0.45;;;17.20;43.90;;;;;;5052305;28;20513;-78
2021/05/28 06:24:49;;;;;;;1.63;0.30;;;17.10;43.90;;;;;;5049550;28;20041;-77
2021/05/28 06:27:17;;;;;;;4.07;0.30;;;16.90;43.80;;;;;;5055184;28;20593;-78
2021/05/28 06:29:44;;;;;;;1.55;0.30;;;16.90;44.10;;;;;;5052593;28;20482;-78
2021/05/28 06:32:12;;;;;;;1.38;0.50;;;16.90;44.40;;;;;;5054284;28;20090;-77
2021/05/28 06:34:39;;;;;;;1.05;0.30;;;16.80;45.00;;;;;;5055178;28;20501;-76
2021/05/28 06:37:07;;;;;;;2.35;0.85;;;16.60;45.20;;;;;;5053602;28;20550;-78
2021/05/28 06:39:34;;;;;;;14.77;2.78;;;16.40;46.00;;;;;;5045477;28;20436;-77
2021/05/28 06:42:03;;;;;;;12.55;1.88;;;16.30;46.90;;;;;;5054487;28;20163;-79
2021/05/28 06:44:31;;;;;;;5.78;0.70;;;16.10;47.70;;;;;;5052457;28;20032;-77
2021/05/28 06:46:58;;;;;;;4.57;0.88;;;16.00;47.80;;;;;;5051603;28;20021;-77
2021/05/28 06:49:26;;;;;;;7.07;1.02;;;15.80;48.50;;;;;;5047800;28;20031;-79
2021/05/28 06:51:53;;;;;;;4.13;1.05;;;15.70;49.10;;;;;;5049502;28;20028;-79
2021/05/28 06:54:21;;;;;;;4.75;1.25;;;15.60;49.40;;;;;;5054832;28;20062;-79
2021/05/28 06:56:48;;;;;;;16.60;11.77;;;15.40;50.20;;;;;;5047404;28;20428;-78
2021/05/28 06:59:16;;;;;;;34.58;27.23;;;15.30;50.90;;;;;;5048977;28;20031;-76
2021/05/28 07:01:43;;;;;;;20.48;18.48;;;15.20;51.40;;;;;;5053324;28;20036;-77
2021/05/28 07:04:10;;;;;;;8.27;7.55;;;15.10;51.30;;;;;;5054388;28;20101;-78
2021/05/28 07:06:38;;;;;;;4.55;2.05;;;15.00;52.50;;;;;;5052384;28;20025;-78
2021/05/28 07:09:08;;;;;;;2.83;1.27;;;15.00;52.00;;;;;;5056225;28;20025;-76
2021/05/28 07:11:35;;;;;;;1.77;0.40;;;14.80;52.50;;;;;;5054655;28;20042;-78
2021/05/28 07:14:03;;;;;;;1.20;0.45;;;14.80;51.90;;;;;;5054835;28;20029;-79
2021/05/28 07:16:31;;;;;;;4.45;0.82;;;14.60;52.70;;;;;;5053820;28;20128;-79
2021/05/28 07:18:58;;;;;;;0.75;0.30;;;14.60;52.60;;;;;;5054918;28;20051;-77
2021/05/28 07:21:29;;;;;;;4.00;0.98;;;14.50;53.30;;;;;;5051194;28;20081;-79
2021/05/28 07:23:56;;;;;;;3.60;0.65;;;14.50;53.00;;;;;;5043209;28;20426;-81
2021/05/28 07:26:24;;;;;;;1.30;0.50;;;14.40;53.60;;;;;;5051278;28;20028;-78
2021/05/28 07:29:03;;;;;;;3.50;0.60;;;14.30;53.90;;;;;;5071700;28;20052;-79
2021/05/28 07:34:27;;;;;;;1.90;0.82;;;14.10;54.00;;;;;;5417104;22;20053;-77
2021/05/28 07:37:44;;;;;;;3.38;1.20;;;14.10;54.80;;;;;;5035602;28;20118;-78
2021/05/28 07:45:52;;;;;;;1.23;0.50;;;13.80;55.70;;;;;;5442786;22;20049;-78
2021/05/28 07:48:35;;;;;;;1.00;0.45;;;13.70;55.70;;;;;;4998642;28;20038;-80
2021/05/28 07:51:03;;;;;;;2.38;1.00;;;13.70;55.90;;;;;;5018995;28;20025;-79
2021/05/28 07:53:30;;;;;;;1.52;0.77;;;13.60;56.90;;;;;;5016149;28;20749;-79
2021/05/28 07:56:00;;;;;;;2.72;0.73;;;13.50;56.30;;;;;;5012117;28;20045;-78
2021/05/28 07:58:30;;;;;;;4.07;0.70;;;13.50;56.50;;;;;;5019000;28;20042;-80
2021/05/28 08:00:57;;;;;;;5.22;0.88;;;13.50;56.20;;;;;;5002190;28;20033;-79
2021/05/28 08:03:25;;;;;;;1.23;0.50;;;13.40;56.10;;;;;;5011907;28;20018;-80
2021/05/28 08:05:53;;;;;;;1.27;0.65;;;13.30;56.10;;;;;;5010434;28;20427;-80
2021/05/28 08:08:22;;;;;;;2.28;0.82;;;13.30;56.60;;;;;;5011319;28;20039;-80
2021/05/28 08:10:50;;;;;;;2.20;1.00;;;13.30;56.40;;;;;;5014109;28;20053;-80
2021/05/28 08:13:18;;;;;;;1.83;0.93;;;13.30;56.20;;;;;;5010917;28;20033;-79
2021/05/28 08:15:45;;;;;;;2.83;0.95;;;13.30;56.30;;;;;;5013824;28;20112;-80
2021/05/28 08:18:13;;;;;;;3.17;0.98;;;13.30;56.60;;;;;;5002501;28;20048;-81
2021/05/28 08:20:40;;;;;;;1.48;0.65;;;13.20;57.30;;;;;;4999064;28;20660;-81
2021/05/28 08:23:08;;;;;;;2.03;0.77;;;13.10;57.50;;;;;;5015044;28;20483;-79
2021/05/28 08:25:35;;;;;;;2.75;0.60;;;13.00;57.80;;;;;;5012404;28;20025;-79
2021/05/28 08:28:03;;;;;;;2.47;0.60;;;13.00;58.40;;;;;;5015489;28;20037;-80
2021/05/28 08:30:31;;;;;;;1.80;0.82;;;12.90;58.50;;;;;;5008815;28;20071;-78
2021/05/28 08:32:58;;;;;;;2.55;1.15;;;12.80;58.60;;;;;;5009594;28;20128;-78
2021/05/28 08:35:26;;;;;;;3.63;0.75;;;12.70;59.90;;;;;;5010135;28;20025;-79
2021/05/28 08:37:53;;;;;;;1.95;0.80;;;12.60;60.40;;;;;;5011697;28;20045;-80
2021/05/28 08:40:30;;;;;;;3.00;0.80;;;12.50;60.40;;;;;;5008830;28;20124;-79
2021/05/28 08:42:59;;;;;;;1.88;0.80;;;12.50;60.30;;;;;;4999649;28;20041;-79
2021/05/28 08:45:36;;;;;;;1.85;0.60;;;12.40;60.80;;;;;;5014705;28;20042;-81
2021/05/28 08:48:11;;;;;;;2.17;0.50;;;12.30;61.00;;;;;;5014929;28;20574;-79
2021/05/28 08:50:39;;;;;;;2.37;1.00;;;12.20;61.50;;;;;;5008855;28;20029;-80
2021/05/28 08:53:12;;;;;;;1.40;0.47;;;12.20;61.10;;;;;;5006885;28;20038;-80
2021/05/28 08:55:41;;;;;;;2.42;0.55;;;12.10;62.50;;;;;;5005678;28;20022;-82
2021/05/28 08:58:18;;;;;;;1.77;0.55;;;12.00;63.10;;;;;;5012197;28;20507;-80
2021/05/28 09:00:46;;;;;;;2.65;1.23;;;12.00;63.20;;;;;;5009053;28;20041;-79
2021/05/28 09:03:27;;;;;;;2.38;1.23;;;11.90;63.10;;;;;;5007459;28;20037;-82
2021/05/28 09:05:57;;;;;;;3.70;1.45;;;11.80;63.40;;;;;;5011246;28;20037;-80
2021/05/28 09:08:27;;;;;;;3.55;0.98;;;11.80;64.10;;;;;;5011367;28;20025;-78
2021/05/28 09:11:17;;;;;;;2.53;1.48;;;11.70;64.70;;;;;;5013058;28;20087;-79
2021/05/28 09:13:52;;;;;;;2.45;1.05;;;11.70;64.60;;;;;;5015274;28;20030;-78
2021/05/28 09:16:27;;;;;;;1.98;0.93;;;11.60;65.20;;;;;;5014437;28;20026;-81
2021/05/28 09:18:57;;;;;;;2.30;1.65;;;11.60;65.20;;;;;;5021712;28;20550;-79
2021/05/28 09:21:31;;;;;;;2.45;1.00;;;11.60;65.50;;;;;;5016046;28;20029;-79
2021/05/28 09:24:03;;;;;;;1.23;0.73;;;11.60;65.20;;;;;;5012638;28;20353;-80
2021/05/28 09:26:32;;;;;;;1.75;0.88;;;11.50;65.10;;;;;;5009974;28;20113;-82
2021/05/28 09:29:01;;;;;;;3.38;0.95;;;11.50;65.40;;;;;;5018844;28;20116;-80
2021/05/28 09:31:32;;;;;;;1.70;1.20;;;11.40;65.30;;;;;;5013070;28;20022;-79
2021/05/28 09:34:00;;;;;;;3.63;1.20;;;11.40;66.00;;;;;;5015972;28;20198;-79
2021/05/28 09:36:31;;;;;;;2.35;1.35;;;11.40;65.60;;;;;;5019896;28;20206;-79
2021/05/28 09:39:13;;;;;;;2.38;1.35;;;11.30;65.80;;;;;;5014189;28;20396;-78
2021/05/28 09:41:51;;;;;;;1.83;0.90;;;11.30;66.20;;;;;;5014840;28;20084;-79
2021/05/28 09:44:18;;;;;;;1.20;0.75;;;11.30;66.20;;;;;;5010748;28;20029;-78
2021/05/28 09:47:18;;;;;;;2.03;1.02;;;11.20;66.20;;;;;;5018062;28;20045;-80
2021/05/28 09:49:48;;;;;;;2.33;0.70;;;11.20;66.80;;;;;;4997456;28;22334;-80
2021/05/28 09:52:28;;;;;;;6.22;1.33;;;11.20;67.50;;;;;;5016466;28;20021;-79
2021/05/28 09:55:08;;;;;;;0.88;0.65;;;11.20;67.50;;;;;;5008971;28;20029;-80
2021/05/28 09:57:52;;;;;;;3.95;1.00;;;11.20;67.70;;;;;;5016934;28;20037;-80
2021/05/28 10:00:38;;;;;;;5.90;0.90;;;11.10;68.00;;;;;;5015004;28;20045;-78
2021/05/28 10:03:23;;;;;;;2.50;1.00;;;11.10;67.50;;;;;;5015049;28;20112;-81
2021/05/28 10:05:57;;;;;;;1.50;0.95;;;11.00;67.80;;;;;;5009382;28;20025;-80
2021/05/28 10:08:26;;;;;;;1.20;0.80;;;11.00;68.10;;;;;;5008749;28;20029;-81
2021/05/28 10:10:56;;;;;;;2.40;1.17;;;11.00;67.60;;;;;;5012237;28;20392;-81
2021/05/28 10:13:25;;;;;;;4.07;0.90;;;11.00;67.60;;;;;;5011962;28;20480;-80
2021/05/28 10:15:55;;;;;;;2.55;0.68;;;11.00;67.80;;;;;;5013137;28;20071;-78
2021/05/28 10:18:25;;;;;;;2.20;0.90;;;11.00;67.60;;;;;;5009678;28;20361;-76
2021/05/28 10:20:55;;;;;;;0.85;0.60;;;11.00;67.60;;;;;;4987513;28;20041;-81
2021/05/28 10:23:26;;;;;;;1.23;0.52;;;11.00;68.00;;;;;;5011971;28;20029;-81
2021/05/28 10:25:58;;;;;;;2.85;0.60;;;11.00;68.00;;;;;;5007956;28;20061;-80
2021/05/28 10:28:35;;;;;;;2.25;0.70;;;10.90;67.40;;;;;;4991588;28;20026;-79
2021/05/28 10:31:04;;;;;;;2.28;0.82;;;10.90;67.70;;;;;;4996698;28;20021;-76
2021/05/28 10:33:35;;;;;;;1.35;1.20;;;10.90;67.40;;;;;;4990748;28;20554;-77
2021/05/28 10:36:08;;;;;;;4.68;0.90;;;10.90;67.80;;;;;;4993906;28;20041;-78
2021/05/28 10:38:44;;;;;;;2.03;0.70;;;10.80;67.40;;;;;;4991836;28;20041;-78
2021/05/28 10:41:21;;;;;;;2.20;0.82;;;10.70;68.00;;;;;;5004688;28;20427;-82
2021/05/28 10:43:51;;;;;;;3.75;0.57;;;10.70;68.00;;;;;;5004040;28;20049;-78
2021/05/28 10:46:19;;;;;;;4.13;1.23;;;10.70;68.20;;;;;;5007247;28;20054;-77
2021/05/28 10:48:46;;;;;;;1.90;0.60;;;10.60;68.30;;;;;;5017888;28;20385;-76
2021/05/28 10:51:22;;;;;;;1.30;0.70;;;10.60;68.80;;;;;;5002496;28;20030;-78
2021/05/28 10:53:53;;;;;;;1.27;0.80;;;10.60;69.20;;;;;;5001901;28;20061;-75
2021/05/28 10:56:43;;;;;;;1.98;0.93;;;10.50;69.10;;;;;;5013592;28;20025;-78
2021/05/28 10:59:22;;;;;;;1.83;0.98;;;10.50;69.10;;;;;;5016271;28;20073;-78
2021/05/28 11:01:57;;;;;;;1.80;0.68;;;10.50;69.30;;;;;;5007883;28;20029;-77
2021/05/28 11:04:31;;;;;;;2.05;0.70;;;10.50;69.20;;;;;;5009297;28;20033;-78
2021/05/28 11:07:00;;;;;;;1.77;0.60;;;10.50;69.20;;;;;;5013982;28;20027;-76
2021/05/28 11:09:38;;;;;;;1.95;1.00;;;10.50;68.90;;;;;;5013337;28;20025;-75
2021/05/28 11:12:10;;;;;;;2.05;1.10;;;10.40;68.70;;;;;;5015128;28;20076;-77
2021/05/28 11:14:40;;;;;;;1.73;0.57;;;10.50;69.50;;;;;;5016176;28;20112;-76
2021/05/28 11:17:09;;;;;;;6.82;1.15;;;10.50;69.00;;;;;;5017729;28;20033;-77
2021/05/28 11:19:47;;;;;;;1.60;0.85;;;10.50;69.50;;;;;;4999409;28;20084;-79
2021/05/28 11:22:26;;;;;;;1.55;1.10;;;10.40;69.80;;;;;;5011823;28;20479;-76
2021/05/28 11:24:54;;;;;;;1.17;0.88;;;10.30;70.10;;;;;;4994303;28;20034;-77
2021/05/28 11:27:24;;;;;;;2.05;0.73;;;10.30;70.20;;;;;;5013685;28;20025;-77
2021/05/28 11:29:55;;;;;;;2.58;1.10;;;10.30;70.80;;;;;;5014631;28;20101;-78
2021/05/28 11:32:35;;;;;;;2.80;0.63;;;10.30;70.90;;;;;;5020509;28;20057;-76
2021/05/28 11:35:39;;;;;;;3.45;0.98;;;10.20;69.80;;;;;;5004821;28;20033;-76
2021/05/28 11:38:11;;;;;;;2.65;0.43;;;10.20;70.10;;;;;;5013697;28;20042;-79
2021/05/28 11:40:42;;;;;;;1.45;0.73;;;10.20;70.50;;;;;;5014771;28;20106;-79
2021/05/28 11:43:17;;;;;;;2.55;0.70;;;10.10;71.00;;;;;;5015957;28;20113;-79
2021/05/28 11:45:50;;;;;;;1.77;0.85;;;10.10;70.80;;;;;;5013806;28;20060;-79
2021/05/28 11:48:25;;;;;;;4.32;0.73;;;10.10;71.30;;;;;;5003574;28;20084;-78
2021/05/28 11:50:55;;;;;;;4.20;0.63;;;10.00;71.60;;;;;;4999994;28;20026;-78
2021/05/28 11:53:23;;;;;;;3.53;1.60;;;10.00;71.50;;;;;;5003167;28;20336;-79
2021/05/28 11:55:53;;;;;;;2.67;0.95;;;9.90;71.40;;;;;;4999266;28;20084;-77
2021/05/28 11:58:22;;;;;;;2.35;1.63;;;10.00;71.80;;;;;;5015766;28;20356;-79
2021/05/28 12:00:52;;;;;;;1.17;0.50;;;9.90;71.60;;;;;;4997218;28;20021;-74
2021/05/28 12:03:21;;;;;;;4.03;0.60;;;9.80;72.10;;;;;;5009405;28;20625;-81
2021/05/28 12:05:50;;;;;;;2.33;0.63;;;9.90;72.40;;;;;;5008930;28;20358;-78
2021/05/28 12:08:22;;;;;;;1.77;0.80;;;9.80;71.80;;;;;;5007352;28;20040;-77
2021/05/28 12:10:55;;;;;;;3.17;0.90;;;9.80;72.40;;;;;;5011256;28;20049;-78
2021/05/28 12:13:27;;;;;;;2.03;0.85;;;9.80;72.30;;;;;;5001293;28;20500;-80
2021/05/28 12:16:17;;;;;;;2.03;0.60;;;9.80;72.50;;;;;;5003030;28;20116;-80
2021/05/28 12:18:46;;;;;;;1.90;0.70;;;9.80;73.30;;;;;;5015552;28;20399;-77
2021/05/28 12:21:22;;;;;;;2.17;0.88;;;9.70;72.80;;;;;;5015557;28;20026;-78
2021/05/28 12:23:54;;;;;;;2.45;0.80;;;9.60;73.30;;;;;;5007113;28;20091;-79
2021/05/28 12:26:23;;;;;;;4.05;1.23;;;9.60;73.30;;;;;;5007292;28;20033;-80
2021/05/28 12:28:55;;;;;;;2.22;0.70;;;9.50;73.60;;;;;;5016265;28;20084;-78
2021/05/28 12:31:29;;;;;;;1.95;1.02;;;9.40;74.10;;;;;;5015860;28;20030;-79
2021/05/28 12:34:07;;;;;;;7.95;1.00;;;9.30;74.80;;;;;;5011961;28;20036;-79
2021/05/28 12:36:38;;;;;;;3.25;0.88;;;9.30;75.10;;;;;;5013239;28;20504;-77
2021/05/28 12:39:18;;;;;;;4.57;1.00;;;9.20;75.80;;;;;;5023235;28;20045;-79
2021/05/28 12:41:47;;;;;;;2.85;1.48;;;9.20;76.50;;;;;;5020188;28;20040;-79
2021/05/28 12:44:19;;;;;;;4.18;0.93;;;9.20;76.90;;;;;;5017726;28;20061;-79
2021/05/28 12:46:56;;;;;;;2.72;1.20;;;9.20;76.90;;;;;;5018547;28;20049;-78
2021/05/28 12:49:33;;;;;;;2.45;0.95;;;9.20;76.90;;;;;;5017710;28;20483;-77
2021/05/28 12:52:01;;;;;;;5.78;1.50;;;9.10;76.60;;;;;;5020037;28;20469;-78
2021/05/28 12:54:32;;;;;;;6.07;1.25;;;9.10;76.70;;;;;;5022609;28;20033;-78
2021/05/28 12:57:06;;;;;;;3.38;1.20;;;9.10;77.50;;;;;;5026453;28;20030;-79
2021/05/28 12:59:39;;;;;;;5.95;0.98;;;9.10;77.10;;;;;;5000892;28;20041;-77
2021/05/28 13:02:17;;;;;;;6.05;1.58;;;9.00;77.70;;;;;;5019775;28;20100;-80
2021/05/28 13:04:53;;;;;;;5.20;1.58;;;9.00;78.20;;;;;;5016141;28;20050;-79
2021/05/28 13:07:39;;;;;;;4.85;1.52;;;9.00;78.20;;;;;;5020191;28;20058;-78
2021/05/28 13:10:22;;;;;;;6.90;1.52;;;9.00;78.90;;;;;;5021069;28;20087;-78
2021/05/28 13:12:53;;;;;;;7.43;2.03;;;9.00;79.00;;;;;;5024874;28;20414;-78
2021/05/28 13:15:30;;;;;;;9.55;2.42;;;9.00;78.50;;;;;;5020066;28;20607;-77
2021/05/28 13:17:58;;;;;;;4.88;2.35;;;8.90;78.60;;;;;;5023735;28;20117;-77
2021/05/28 13:20:28;;;;;;;4.50;2.35;;;8.90;78.90;;;;;;5018682;28;20368;-76
2021/05/28 13:22:59;;;;;;;9.35;2.38;;;8.90;78.70;;;;;;5020017;28;20030;-77
2021/05/28 13:25:31;;;;;;;7.55;1.75;;;8.90;79.30;;;;;;5014076;28;20499;-77
2021/05/28 13:28:22;;;;;;;4.35;1.33;;;8.80;79.50;;;;;;5025429;28;20361;-79
2021/05/28 13:30:55;;;;;;;5.82;2.38;;;8.70;80.00;;;;;;5010079;28;20543;-80
2021/05/28 13:33:28;;;;;;;5.38;1.95;;;8.70;80.10;;;;;;5016314;28;20377;-81
2021/05/28 13:36:06;;;;;;;3.47;2.13;;;8.60;80.10;;;;;;5016154;28;20025;-79
2021/05/28 13:38:36;;;;;;;4.13;2.38;;;8.60;80.60;;;;;;5022145;28;20455;-79
2021/05/28 13:41:11;;;;;;;6.45;1.58;;;8.70;80.20;;;;;;5017721;28;20029;-77
2021/05/28 13:43:39;;;;;;;5.00;2.00;;;8.60;80.50;;;;;;5014716;28;20030;-77
2021/05/28 13:46:06;;;;;;;4.10;1.05;;;8.60;81.10;;;;;;5019322;28;20527;-77
2021/05/28 13:48:35;;;;;;;2.70;1.33;;;8.60;81.00;;;;;;5018257;28;20029;-80
2021/05/28 13:51:03;;;;;;;8.60;1.20;;;8.50;81.40;;;;;;5021105;28;20025;-77
2021/05/28 13:53:30;;;;;;;2.50;0.50;;;8.60;81.80;;;;;;5022394;28;20029;-79
2021/05/28 13:55:58;;;;;;;2.85;0.50;;;8.50;81.20;;;;;;5019758;28;20026;-77
2021/05/28 13:58:26;;;;;;;2.65;0.52;;;8.50;81.20;;;;;;5019616;28;20048;-80
2021/05/28 14:00:54;;;;;;;3.97;0.57;;;8.40;81.20;;;;;;5019957;28;20033;-78
2021/05/28 14:03:23;;;;;;;2.97;0.63;;;8.40;81.40;;;;;;5021821;28;20075;-80
2021/05/28 14:05:52;;;;;;;3.47;0.82;;;8.40;81.30;;;;;;5020859;28;20030;-81
2021/05/28 14:08:21;;;;;;;1.88;0.60;;;8.40;80.80;;;;;;5013473;28;21631;-76
2021/05/28 14:10:52;;;;;;;1.33;0.40;;;8.30;81.20;;;;;;5013390;28;20109;-77
2021/05/28 14:13:20;;;;;;;2.35;0.60;;;8.40;81.30;;;;;;5016534;28;20042;-78
2021/05/28 14:15:47;;;;;;;4.20;0.77;;;8.40;81.10;;;;;;5018275;28;20037;-78
2021/05/28 14:18:17;;;;;;;4.47;0.80;;;8.40;81.60;;;;;;5018550;28;20030;-77
2021/05/28 14:20:44;;;;;;;2.80;1.13;;;8.40;81.60;;;;;;5011034;28;20495;-78
2021/05/28 14:23:11;;;;;;;2.38;0.70;;;8.30;81.30;;;;;;5020789;28;20026;-77
2021/05/28 14:25:39;;;;;;;6.85;1.05;;;8.30;81.70;;;;;;5017111;28;20018;-76
2021/05/28 14:28:07;;;;;;;6.63;0.93;;;8.30;82.00;;;;;;5023334;28;20084;-76
2021/05/28 14:30:37;;;;;;;5.68;1.48;;;8.30;82.70;;;;;;5019460;28;20101;-77
2021/05/28 14:33:04;;;;;;;3.33;0.90;;;8.30;82.40;;;;;;5014265;28;20395;-78
2021/05/28 14:35:32;;;;;;;3.80;1.65;;;8.30;82.20;;;;;;5019274;28;20049;-78
2021/05/28 14:37:59;;;;;;;3.90;1.25;;;8.30;82.10;;;;;;5017780;28;20453;-79
2021/05/28 14:40:27;;;;;;;3.47;1.08;;;8.30;82.30;;;;;;5020098;28;20037;-78
2021/05/28 14:42:54;;;;;;;4.90;1.60;;;8.30;82.10;;;;;;5019533;28;20045;-80
2021/05/28 14:45:23;;;;;;;4.95;1.20;;;8.30;82.60;;;;;;5013316;28;20496;-77
2021/05/28 14:47:51;;;;;;;4.05;1.17;;;8.30;81.90;;;;;;5012980;28;20058;-77
2021/05/28 14:50:20;;;;;;;5.55;1.13;;;8.20;82.50;;;;;;5019456;28;20025;-78
2021/05/28 14:52:47;;;;;;;3.58;1.48;;;8.20;82.80;;;;;;5014630;28;20022;-78
2021/05/28 14:55:15;;;;;;;5.43;1.65;;;8.20;82.70;;;;;;5022262;28;20021;-78
2021/05/28 14:57:43;;;;;;;1.90;0.90;;;8.20;82.80;;;;;;5010098;28;20522;-78
2021/05/28 15:00:16;;;;;;;2.60;0.63;;;8.10;82.80;;;;;;5018322;28;20027;-81
2021/05/28 15:02:44;;;;;;;1.58;0.50;;;8.20;82.20;;;;;;5012247;28;20045;-80
2021/05/28 15:05:12;;;;;;;1.23;0.30;;;8.20;81.50;;;;;;5017438;28;20053;-79
2021/05/28 15:07:41;;;;;;;0.95;0.40;;;8.20;81.30;;;;;;5018521;28;20037;-77
2021/05/28 15:10:10;;;;;;;1.00;0.50;;;8.20;81.60;;;;;;5021858;28;20144;-78
2021/05/28 15:12:37;;;;;;;4.88;0.60;;;8.20;81.30;;;;;;5022182;28;20442;-77
2021/05/28 15:15:05;;;;;;;1.50;0.47;;;8.20;81.30;;;;;;5016269;28;20095;-77
2021/05/28 15:17:32;;;;;;;1.92;0.20;;;8.20;81.20;;;;;;5022559;28;20117;-77
2021/05/28 15:20:00;;;;;;;3.80;0.95;;;8.20;81.80;;;;;;5019311;28;20685;-76
2021/05/28 15:22:27;;;;;;;1.20;0.38;;;8.20;81.70;;;;;;5015341;28;20079;-78
2021/05/28 15:24:55;;;;;;;1.25;0.35;;;8.20;81.60;;;;;;5020127;28;20026;-78
2021/05/28 15:27:22;;;;;;;1.50;0.30;;;8.20;81.50;;;;;;5015987;28;20325;-77
2021/05/28 15:29:50;;;;;;;1.73;0.40;;;8.30;81.40;;;;;;5018016;28;20030;-77
2021/05/28 15:32:17;;;;;;;1.80;0.30;;;8.30;81.20;;;;;;5020714;28;20037;-77
2021/05/28 15:34:44;;;;;;;2.63;0.50;;;8.30;80.90;;;;;;5015694;28;20030;-78
2021/05/28 15:37:12;;;;;;;4.43;0.77;;;8.40;80.60;;;;;;5017647;28;20025;-77
2021/05/28 15:39:39;;;;;;;0.57;0.30;;;8.30;80.80;;;;;;5019098;28;20105;-77
2021/05/28 15:42:07;;;;;;;2.45;0.38;;;8.40;80.90;;;;;;5020394;28;20405;-78
2021/05/28 15:44:38;;;;;;;0.70;0.30;;;8.30;81.00;;;;;;5017051;28;20021;-77
2021/05/28 15:47:05;;;;;;;3.05;0.35;;;8.30;81.40;;;;;;5010311;28;20032;-76
2021/05/28 15:49:33;;;;;;;5.18;0.40;;;8.40;80.80;;;;;;5017846;28;20432;-76
2021/05/28 15:52:01;;;;;;;3.05;0.60;;;8.40;81.60;;;;;;5016262;28;20062;-76
2021/05/28 15:54:29;;;;;;;2.55;0.30;;;8.30;81.10;;;;;;5012573;28;20053;-76
2021/05/28 15:56:57;;;;;;;2.53;0.25;;;8.30;81.70;;;;;;5017629;28;20030;-77
2021/05/28 15:59:24;;;;;;;1.85;0.20;;;8.40;81.40;;;;;;5019289;28;20128;-76
2021/05/28 16:01:52;;;;;;;1.52;0.32;;;8.30;81.90;;;;;;5019059;28;20052;-77
2021/05/28 16:04:19;;;;;;;2.35;0.60;;;8.30;82.10;;;;;;5014457;28;20431;-76
2021/05/28 16:06:47;;;;;;;3.70;0.28;;;8.30;81.90;;;;;;5017197;28;20076;-77
2021/05/28 16:09:14;;;;;;;5.10;0.63;;;8.30;81.90;;;;;;5019098;28;20017;-77
2021/05/28 16:11:42;;;;;;;2.22;0.30;;;8.20;82.10;;;;;;5019972;28;20088;-77
2021/05/28 16:14:09;;;;;;;3.67;1.02;;;8.20;82.60;;;;;;5020671;28;20101;-76
2021/05/28 16:16:36;;;;;;;1.88;0.50;;;8.20;82.30;;;;;;5022645;28;20116;-77
2021/05/28 16:19:04;;;;;;;2.05;0.22;;;8.20;82.70;;;;;;5014393;28;20096;-76
2021/05/28 16:21:31;;;;;;;1.00;0.28;;;8.20;82.40;;;;;;5019505;28;20029;-76
2021/05/28 16:23:59;;;;;;;1.33;0.20;;;8.20;82.70;;;;;;5019677;28;20033;-76
2021/05/28 16:26:27;;;;;;;0.85;0.20;;;8.20;83.20;;;;;;5012416;28;20118;-76
2021/05/28 16:28:54;;;;;;;1.20;0.20;;;8.20;83.00;;;;;;5020037;28;20026;-79
2021/05/28 16:31:22;;;;;;;1.80;0.50;;;8.20;83.00;;;;;;5019474;28;20424;-77
2021/05/28 16:33:49;;;;;;;3.25;0.80;;;8.10;83.20;;;;;;5013097;28;20025;-78
2021/05/28 16:36:16;;;;;;;3.47;0.73;;;8.10;83.20;;;;;;5018641;28;20024;-77
2021/05/28 16:38:44;;;;;;;2.33;0.70;;;8.10;83.00;;;;;;5017020;28;20098;-77
2021/05/28 16:41:11;;;;;;;3.33;1.02;;;8.10;83.10;;;;;;5023203;28;20026;-77
2021/05/28 16:43:39;;;;;;;3.17;0.60;;;8.20;83.50;;;;;;5018892;28;20045;-77
2021/05/28 16:46:07;;;;;;;2.60;0.85;;;8.20;83.40;;;;;;5014793;28;20049;-78
2021/05/28 16:48:35;;;;;;;6.65;1.60;;;8.10;83.50;;;;;;5015891;28;20256;-77
2021/05/28 16:51:02;;;;;;;5.25;0.68;;;8.20;83.70;;;;;;5020221;28;20018;-77
2021/05/28 16:53:31;;;;;;;1.65;0.45;;;8.10;83.70;;;;;;5020374;28;20494;-78
2021/05/28 16:55:59;;;;;;;2.38;0.40;;;8.20;84.20;;;;;;5015026;28;20029;-77
2021/05/28 16:58:27;;;;;;;7.70;1.27;;;8.20;83.70;;;;;;5017745;28;20488;-78
2021/05/28 17:00:55;;;;;;;2.78;0.95;;;8.20;84.00;;;;;;5016721;28;20040;-77
2021/05/28 17:03:23;;;;;;;3.03;0.57;;;8.20;84.10;;;;;;5016031;28;20034;-77
2021/05/28 17:05:51;;;;;;;3.08;0.43;;;8.10;83.90;;;;;;5012919;28;20037;-78
2021/05/28 17:08:19;;;;;;;6.28;1.35;;;8.10;84.40;;;;;;5012870;28;20068;-77
2021/05/28 17:10:47;;;;;;;4.70;0.73;;;8.20;84.80;;;;;;5016399;28;20444;-78
2021/05/28 17:13:15;;;;;;;8.57;0.95;;;8.10;84.30;;;;;;5018500;28;20140;-77
2021/05/28 17:15:48;;;;;;;1.98;0.63;;;8.20;84.10;;;;;;5014969;28;20018;-77
2021/05/28 17:18:17;;;;;;;6.45;1.08;;;8.20;83.80;;;;;;5019973;28;20073;-78
2021/05/28 17:20:45;;;;;;;8.07;1.27;;;8.10;84.20;;;;;;5016990;28;20021;-78
2021/05/28 17:23:13;;;;;;;5.88;1.00;;;8.20;84.40;;;;;;5016314;28;20124;-77
2021/05/28 17:25:40;;;;;;;9.48;2.17;;;8.20;84.20;;;;;;5017093;28;20075;-78
2021/05/28 17:28:09;;;;;;;8.93;1.88;;;8.20;84.20;;;;;;5024893;28;20030;-78
2021/05/28 17:30:37;;;;;;;9.45;1.08;;;8.10;84.70;;;;;;5020579;28;20076;-76
2021/05/28 17:33:06;;;;;;;4.22;0.75;;;8.10;84.50;;;;;;5012860;28;20107;-77